Accueil
METAR-TAF:

METAR-TAF

Aéroports :

Le Mans, France

Aéroport Le Mans-Arnage

latitude: 47-56N, longitude: 000-12E, altitude: 59 m

Observation

Le bulletin a été fait il y a 31 minutes, à 17:00 UTC
Vent 1 kt de direction variable
Température 20°C
Humidité 49%
Pression 1017 hPa
Visibilité 10 km ou plus
pas de nuages en-dessous de 1500 mètres et pas de cumulonimbus.

METAR: LFRM 211700Z AUTO VRB01KT CAVOK 20/09 Q1017 NOSIG

Heure: 19:31 (17:31 UTC)

Prévision

Le bulletin a été fait il y a 3 heures et 31 minutes, à 14:00 UTC
Prévision valable du 21 à 15 UTC au 21 à 24 UTC
Vent 5 kt de direction variable
Visibilité 10 km ou plus
pas de nuages en-dessous de 1500 mètres et pas de cumulonimbus.
Temporairement
du 21 à 22 UTC au 21 à 24 UTC
Visibilité: 5000 m
Nuages fragmentés à une hauteur de 1400 ft
pluie faible

TAF: LFRM 211400Z 2115/2124 VRB05KT CAVOK TEMPO 2122/2124 5000 -RA BKN014

Observations et prévisions météorologiques de plus de 4000 aéroports (messages METAR et TAF).

Les stations disponibles sont représentées par des disques jaunes et rouges sur la carte.

Passer la souris dessus pour voir le nom de la station.

Cliquer dessus pour voir les observations et prévisions météorologiques.

Pour changer de carte: cliquez sur les boutons verts avec une croix noire pour zoomer, sur le bouton vert avec un tiret pour effectuer un zoom arrière, ou sur les flèches vertes pour les cartes adjacentes.


METAR-TAF: